createdAt,value
2023-04-01T13:03:54.158Z,19.3854
2023-04-01T13:04:55.780Z,19.7598
2023-04-01T13:05:57.148Z,19.9872
2023-04-01T13:06:58.679Z,20.2160
2023-04-01T13:15:21.828Z,17.6811
2023-04-01T13:16:23.394Z,17.6839
2023-04-01T13:17:24.926Z,17.6841
2023-04-01T13:18:26.435Z,17.6365
2023-04-01T13:19:27.902Z,17.5346
2023-04-01T13:20:29.445Z,17.5064
2023-04-01T13:21:30.990Z,17.4516
2023-04-01T13:22:32.512Z,17.3935
2023-04-01T13:23:33.983Z,17.4278
2023-04-01T13:24:35.780Z,17.3462
2023-04-01T13:25:37.054Z,17.3388
2023-04-01T13:26:38.568Z,17.3655
2023-04-01T13:27:40.130Z,17.3247
2023-04-01T13:28:41.631Z,17.2778
2023-04-01T13:29:43.206Z,17.2538
2023-04-01T13:30:44.691Z,17.2443
2023-04-01T13:31:46.225Z,17.2371
2023-04-01T13:32:47.839Z,17.2912
2023-04-01T13:33:49.214Z,17.2756
2023-04-01T13:34:50.838Z,17.2275
2023-04-01T13:35:52.315Z,17.2180
2023-04-01T13:36:53.827Z,17.1673
2023-04-01T13:37:55.353Z,17.1702
2023-04-01T13:38:56.857Z,17.1809
2023-04-01T13:39:58.374Z,17.2234
2023-04-01T13:41:03.498Z,17.1581
2023-04-01T16:09:08.464Z,17.4982
2023-04-01T16:10:09.962Z,17.5605
2023-04-01T16:11:11.504Z,17.5876
2023-04-01T16:12:13.039Z,17.6363
2023-04-01T16:13:14.552Z,17.6149
2023-04-01T16:14:16.085Z,17.6461
2023-04-01T16:15:17.619Z,17.6048
2023-04-01T16:16:19.239Z,17.6001
2023-04-01T16:17:20.732Z,17.5868
2023-04-01T16:18:22.202Z,17.5718
2023-04-01T16:19:23.857Z,17.5843
2023-04-01T16:20:25.260Z,17.5808
2023-04-01T16:21:26.780Z,17.5457
2023-04-01T16:22:28.322Z,17.5564
2023-04-01T16:23:29.841Z,17.5529
2023-04-01T16:24:31.383Z,17.5586
2023-04-01T16:25:33.056Z,17.5477
2023-04-01T16:26:34.451Z,17.5672
2023-04-01T16:27:36.058Z,17.5368
2023-04-01T16:28:37.622Z,17.5422
2023-04-01T16:29:39.130Z,17.5087
2023-04-01T16:30:40.657Z,17.4832
2023-04-01T16:31:42.103Z,17.5011
2023-04-01T16:32:43.868Z,17.5348
2023-04-01T16:33:45.140Z,17.5288
2023-04-01T16:34:46.682Z,17.5087
2023-04-01T16:35:48.337Z,17.5036
2023-04-01T16:36:49.925Z,17.5200
2023-04-01T16:37:51.287Z,17.5036
2023-04-01T16:38:53.013Z,17.4939
2023-04-01T16:39:54.321Z,17.5075
2023-04-01T16:40:55.858Z,17.5237
2023-04-01T16:41:57.390Z,17.5124
2023-04-01T16:42:58.911Z,17.4851
2023-04-01T16:44:00.434Z,17.4594
2023-04-01T16:45:01.970Z,17.4461
2023-04-01T16:46:03.537Z,17.4473
2023-04-01T16:47:05.073Z,17.4397
2023-04-01T16:48:06.686Z,17.4280
2023-04-01T16:49:08.162Z,17.4267
2023-04-01T16:50:09.596Z,17.4048
2023-04-01T16:51:11.183Z,17.3926
2023-04-01T16:52:12.859Z,17.3604
2023-04-01T16:53:14.361Z,17.3620
2023-04-01T16:54:15.708Z,17.3514
2023-04-01T16:55:17.254Z,17.3470
2023-04-01T16:56:18.784Z,17.3618
2023-04-01T16:57:20.385Z,17.3407
2023-04-01T16:58:21.906Z,17.3341
2023-04-01T16:59:23.596Z,17.1766
2023-04-01T17:00:25.703Z,17.0515
2023-04-01T17:01:28.760Z,17.0473
2023-04-01T17:02:28.017Z,17.0691
2023-04-01T17:03:29.474Z,17.0307
2023-04-01T17:04:31.061Z,16.9833
2023-04-01T17:05:32.534Z,16.9679
2023-04-01T17:06:34.053Z,16.9818
2023-04-01T17:07:35.608Z,16.9181
2023-04-01T17:08:37.152Z,16.8865
2023-04-01T17:09:38.649Z,16.8475
2023-04-01T17:10:40.176Z,16.8358
2023-04-01T17:11:41.795Z,16.7657
2023-04-01T17:12:43.407Z,16.7774
2023-04-01T17:13:44.884Z,16.8027
2023-04-01T17:14:46.670Z,16.7873
2023-04-01T17:15:48.063Z,16.9644
2023-04-01T17:16:49.342Z,16.9983
2023-04-01T17:17:50.956Z,17.0443
2023-04-01T17:18:52.386Z,17.0658
2023-04-01T17:19:53.930Z,17.1112
2023-04-01T17:20:55.492Z,17.1176
2023-04-01T17:21:57.002Z,17.1505
2023-04-01T17:22:58.608Z,17.1907
2023-04-01T17:24:00.063Z,17.2298
2023-04-01T17:25:01.564Z,17.1948
2023-04-01T17:26:03.119Z,17.2275
2023-04-01T17:27:04.657Z,17.2710
2023-04-01T17:28:06.158Z,17.2521
2023-04-01T17:29:07.728Z,17.2404
2023-04-01T17:30:09.207Z,17.2456
2023-04-01T17:31:10.853Z,17.2618
2023-04-01T17:32:12.262Z,17.2275
2023-04-01T17:33:13.826Z,17.2521
2023-04-01T17:34:15.344Z,17.2209
2023-04-01T17:35:16.896Z,17.2347
2023-04-01T17:36:18.381Z,17.2300
2023-04-01T17:37:19.981Z,17.2293
2023-04-01T17:38:21.463Z,17.2347
2023-04-01T17:39:22.954Z,17.2328
2023-04-01T17:40:24.658Z,17.2014
2023-04-01T17:41:26.033Z,17.2113
2023-04-01T17:42:27.533Z,17.1681
2023-04-01T17:43:29.084Z,17.1926
2023-04-01T17:44:30.690Z,17.2057
2023-04-01T17:45:32.231Z,17.2156
2023-04-01T17:46:33.733Z,17.2078
2023-04-01T17:47:35.204Z,17.2300
2023-04-01T17:48:36.784Z,17.2115
2023-04-01T17:49:38.278Z,17.1800
2023-04-01T17:50:39.791Z,17.1928
2023-04-01T17:51:41.462Z,17.1763
2023-04-01T17:52:42.803Z,17.1833
2023-04-01T17:53:44.349Z,17.1883
2023-04-01T17:54:45.873Z,17.2162
2023-04-01T17:55:47.430Z,17.1605
2023-04-01T17:56:48.998Z,17.1683
2023-04-01T17:57:50.450Z,17.1971
2023-04-01T17:58:52.018Z,17.1513
2023-04-01T17:59:53.548Z,17.1646
2023-04-01T18:00:55.028Z,17.2057
2023-04-01T18:01:56.593Z,17.2049
2023-04-01T18:02:58.131Z,17.1768
2023-04-01T18:04:00.150Z,17.1661
2023-04-01T18:05:01.166Z,17.2365
2023-04-01T18:06:02.723Z,17.3064
2023-04-01T18:07:04.204Z,17.3031
2023-04-01T18:08:05.703Z,17.3125
2023-04-01T18:09:07.254Z,17.2901
2023-04-01T18:10:08.825Z,17.3010
2023-04-01T18:11:10.305Z,17.3072
2023-04-01T18:12:11.804Z,17.3320
2023-04-01T18:13:13.341Z,17.3284
2023-04-01T18:14:14.943Z,17.3407
2023-04-01T18:15:16.421Z,17.2922
2023-04-01T18:16:18.134Z,17.2530
2023-04-01T18:17:19.515Z,17.2834
2023-04-01T18:18:20.984Z,17.2209
2023-04-01T18:19:22.527Z,17.2070
2023-04-01T18:20:24.028Z,17.1704
2023-04-01T18:21:25.582Z,17.2028
2023-04-01T18:22:27.092Z,17.1944
2023-04-01T18:23:28.776Z,17.1989
2023-04-01T18:24:30.162Z,17.2404
2023-04-01T18:25:31.664Z,17.2285
2023-04-01T18:26:33.237Z,17.1844
2023-04-01T18:27:34.765Z,17.1897
2023-04-01T18:28:36.235Z,17.1846
2023-04-01T18:29:37.856Z,17.2100
2023-04-01T18:30:39.321Z,17.1595
2023-04-01T18:31:40.899Z,17.1926
2023-04-01T18:32:42.497Z,17.2047
2023-04-01T18:33:43.958Z,17.2271
2023-04-01T18:34:45.440Z,17.2244
2023-04-01T18:35:47.051Z,17.2092
2023-04-01T18:36:49.437Z,17.2224
